AAR weather

Aarhus Airport
Aarhus, Central Jutland, Denmark

Public forecast

Using degrees Celsius for public forecast. Weather courtesy of forecast.io.

Current aviation weather report (METAR) for Aarhus Airport

Retrieved 2019/10/15 07:20 UTC (32 minutes ago):

EKAH 150720Z AUTO 13007KT 100V170 9999NDV FEW010/// 12/10 Q1008

Aviation forecast (TAF) for Aarhus Airport

Retrieved 2019/10/15 06:31 UTC (1 hour ago):

TAF EKAH 150456Z 1506/1606 11012KT 9999 SCT030 TEMPO 1506/1511 BKN006 TEMPO 1511/1517 BKN012 TEMPO 1517/1521 4000 BR BKN008 BECMG 1521/1523 VRB02KT PROB40 1521/1606 0500 FG BKN002